Neil N. Diehl (nnd) — WDB8701 — position and weather

sailwx.info

Track history (hours):
 
Tides and Currents Weather Stations Pressure Air Temp Water Temp Dewpoint Dewpoint Depression Visibility Wind Speed Wind Dir Waves Ship Positions

Neil N. Diehl (nnd)

Owner: Ingram Barge Company LLC, Nashville, TN. More information available from US FCC via Universal Licensing System and Coast Guard Vessel Documentation Center.

Last reported at 2018-Feb-11 18:06 UTC. Time now 2018-Feb-20 09:58 UTC.
Position N 38°31' W 090°16'.
Warning: this ship's position is 8 days out of date.

Length 39 m; draft 2.7 m.

Type: Ship (hazmat cat B). MMSI: 366963030.

Date/timePositionNaut miles runAvg speedWind from/ knotsBaromVisibWave heightAir tempDewpointWater temp
2018-Feb-11 18:06N 38°31' W 090°16'1 4.9
2018-Feb-11 18:00N 38°32' W 090°16'0 0.3
2018-Feb-11 17:30N 38°32' W 090°15'0 0.1
2018-Feb-11 16:02N 38°32' W 090°16'0 3.6
2018-Feb-11 15:58N 38°32' W 090°16'1 0.2
2018-Feb-11 12:20N 38°32' W 090°15'3 5.2
2018-Feb-11 11:42N 38°35' W 090°13'1 6.8
2018-Feb-11 11:30N 38°36' W 090°12'4 7.6
2018-Feb-11 11:00N 38°40' W 090°11'2 4.1
2018-Feb-11 10:30N 38°42' W 090°11'0 0.7
2018-Feb-11 09:59N 38°42' W 090°11'1 1.6
2018-Feb-11 09:30N 38°43' W 090°10'1 1.9
2018-Feb-11 09:00N 38°44' W 090°10'0 0.0
2018-Feb-11 08:30N 38°44' W 090°10'0 0.1
2018-Feb-11 08:00N 38°44' W 090°10'0 0.3
2018-Feb-11 07:30N 38°44' W 090°10'1 2.3
2018-Feb-11 07:00N 38°45' W 090°09'2 3.7
2018-Feb-11 06:30N 38°46' W 090°08'2 3.7
2018-Feb-11 06:00N 38°48' W 090°07'3 5.4
2018-Feb-11 05:30N 38°51' W 090°07'2 4.5
2018-Feb-11 05:00N 38°52' W 090°09'0 0.1
2018-Feb-11 04:30N 38°52' W 090°09'0 0.2
2018-Feb-11 04:00N 38°52' W 090°09'0 0.0
2018-Feb-11 03:30N 38°52' W 090°09'0 0.3
2018-Feb-11 03:00N 38°52' W 090°09'2 3.3
2018-Feb-11 02:30N 38°53' W 090°11'2 4.6
2018-Feb-11 02:00N 38°55' W 090°14'1 1.5
2018-Feb-11 01:30N 38°55' W 090°14'0 0.0
2018-Feb-11 01:00N 38°55' W 090°14'0 0.0
2018-Feb-11 00:30N 38°55' W 090°14'0 0.0
2018-Feb-11 00:00N 38°55' W 090°14'0 0.0
2018-Feb-10 23:30N 38°55' W 090°14'0 0.0
2018-Feb-10 23:00N 38°55' W 090°14'0 0.0
2018-Feb-10 22:30N 38°55' W 090°14'0 0.0
2018-Feb-10 22:00N 38°55' W 090°14'0 0.4
2018-Feb-10 21:30N 38°55' W 090°14'0 0.0
2018-Feb-10 21:00N 38°55' W 090°14'0 0.0
2018-Feb-10 20:30N 38°55' W 090°14'0 0.0
2018-Feb-10 20:00N 38°55' W 090°14'0 0.0
2018-Feb-10 19:30N 38°55' W 090°14'0 0.0
2018-Feb-10 19:00N 38°55' W 090°14'0 0.0
2018-Feb-10 18:30N 38°55' W 090°14'1 1.1
2018-Feb-10 18:00N 38°55' W 090°15'2 3.5
2018-Feb-10 17:30N 38°55' W 090°17'3 5.0
2018-Feb-10 17:00N 38°56' W 090°20'2 5.0
2018-Feb-10 16:30N 38°57' W 090°23'3 5.8
2018-Feb-10 16:00N 38°58' W 090°26'3 5.2
2018-Feb-10 15:30N 38°58' W 090°30'2 4.2
2018-Feb-10 15:00N 38°58' W 090°32'3 5.2
2018-Feb-10 14:30N 38°60' W 090°34'2 5.0
2018-Feb-10 14:00N 39°02' W 090°35'2 4.0
2018-Feb-10 13:30N 39°04' W 090°35'3 5.0
2018-Feb-10 13:00N 39°07' W 090°36'3 4.4
2018-Feb-10 12:15N 39°10' W 090°37'1 4.1
2018-Feb-10 11:59N 39°11' W 090°36'  
2018-Feb-02 01:09N 39°12' W 090°36'2 4.1
2018-Feb-02 00:45N 39°11' W 090°36'2 4.5
2018-Feb-02 00:24N 39°09' W 090°37'2 4.4
2018-Feb-02 00:00N 39°08' W 090°36'4 5.1
2018-Feb-01 23:17N 39°04' W 090°35'1 4.1
2018-Feb-01 23:00N 39°03' W 090°35'3 3.0
2018-Feb-01 22:00N 39°00' W 090°35'2 4.1
2018-Feb-01 21:29N 38°58' W 090°33'8 4.1
2018-Feb-01 19:30N 38°57' W 090°23'3 5.3
2018-Feb-01 19:00N 38°56' W 090°20'3 5.8
2018-Feb-01 18:30N 38°55' W 090°16'  
Track history (hours):
 
Tides and Currents Weather Stations Pressure Air Temp Water Temp Dewpoint Dewpoint Depression Visibility Wind Speed Wind Dir Waves Ship Positions

Neil N. Diehl (nnd)

Owner: Ingram Barge Company LLC, Nashville, TN. More information available from US FCC via Universal Licensing System and Coast Guard Vessel Documentation Center.

Last reported at 2018-Feb-11 18:06 UTC. Time now 2018-Feb-20 09:58 UTC.
Position N 38°31' W 090°16'.
Warning: this ship's position is 8 days out of date.

Length 39 m; draft 2.7 m.

Type: Ship (hazmat cat B). MMSI: 366963030.

Date/timePositionNaut miles runAvg speedWind from/ knotsBaromVisibWave heightAir tempDewpointWater temp
2018-Feb-11 18:06N 38°31' W 090°16'1 4.9
2018-Feb-11 18:00N 38°32' W 090°16'0 0.3
2018-Feb-11 17:30N 38°32' W 090°15'0 0.1
2018-Feb-11 16:02N 38°32' W 090°16'0 3.6
2018-Feb-11 15:58N 38°32' W 090°16'1 0.2
2018-Feb-11 12:20N 38°32' W 090°15'3 5.2
2018-Feb-11 11:42N 38°35' W 090°13'1 6.8
2018-Feb-11 11:30N 38°36' W 090°12'4 7.6
2018-Feb-11 11:00N 38°40' W 090°11'2 4.1
2018-Feb-11 10:30N 38°42' W 090°11'0 0.7
2018-Feb-11 09:59N 38°42' W 090°11'1 1.6
2018-Feb-11 09:30N 38°43' W 090°10'1 1.9
2018-Feb-11 09:00N 38°44' W 090°10'0 0.0
2018-Feb-11 08:30N 38°44' W 090°10'0 0.1
2018-Feb-11 08:00N 38°44' W 090°10'0 0.3
2018-Feb-11 07:30N 38°44' W 090°10'1 2.3
2018-Feb-11 07:00N 38°45' W 090°09'2 3.7
2018-Feb-11 06:30N 38°46' W 090°08'2 3.7
2018-Feb-11 06:00N 38°48' W 090°07'3 5.4
2018-Feb-11 05:30N 38°51' W 090°07'2 4.5
2018-Feb-11 05:00N 38°52' W 090°09'0 0.1
2018-Feb-11 04:30N 38°52' W 090°09'0 0.2
2018-Feb-11 04:00N 38°52' W 090°09'0 0.0
2018-Feb-11 03:30N 38°52' W 090°09'0 0.3
2018-Feb-11 03:00N 38°52' W 090°09'2 3.3
2018-Feb-11 02:30N 38°53' W 090°11'2 4.6
2018-Feb-11 02:00N 38°55' W 090°14'1 1.5
2018-Feb-11 01:30N 38°55' W 090°14'0 0.0
2018-Feb-11 01:00N 38°55' W 090°14'0 0.0
2018-Feb-11 00:30N 38°55' W 090°14'0 0.0
2018-Feb-11 00:00N 38°55' W 090°14'0 0.0
2018-Feb-10 23:30N 38°55' W 090°14'0 0.0
2018-Feb-10 23:00N 38°55' W 090°14'0 0.0
2018-Feb-10 22:30N 38°55' W 090°14'0 0.0
2018-Feb-10 22:00N 38°55' W 090°14'0 0.4
2018-Feb-10 21:30N 38°55' W 090°14'0 0.0
2018-Feb-10 21:00N 38°55' W 090°14'0 0.0
2018-Feb-10 20:30N 38°55' W 090°14'0 0.0
2018-Feb-10 20:00N 38°55' W 090°14'0 0.0
2018-Feb-10 19:30N 38°55' W 090°14'0 0.0
2018-Feb-10 19:00N 38°55' W 090°14'0 0.0
2018-Feb-10 18:30N 38°55' W 090°14'1 1.1
2018-Feb-10 18:00N 38°55' W 090°15'2 3.5
2018-Feb-10 17:30N 38°55' W 090°17'3 5.0
2018-Feb-10 17:00N 38°56' W 090°20'2 5.0
2018-Feb-10 16:30N 38°57' W 090°23'3 5.8
2018-Feb-10 16:00N 38°58' W 090°26'3 5.2
2018-Feb-10 15:30N 38°58' W 090°30'2 4.2
2018-Feb-10 15:00N 38°58' W 090°32'3 5.2
2018-Feb-10 14:30N 38°60' W 090°34'2 5.0
2018-Feb-10 14:00N 39°02' W 090°35'2 4.0
2018-Feb-10 13:30N 39°04' W 090°35'3 5.0
2018-Feb-10 13:00N 39°07' W 090°36'3 4.4
2018-Feb-10 12:15N 39°10' W 090°37'1 4.1
2018-Feb-10 11:59N 39°11' W 090°36'  
2018-Feb-02 01:09N 39°12' W 090°36'2 4.1
2018-Feb-02 00:45N 39°11' W 090°36'2 4.5
2018-Feb-02 00:24N 39°09' W 090°37'2 4.4
2018-Feb-02 00:00N 39°08' W 090°36'4 5.1
2018-Feb-01 23:17N 39°04' W 090°35'1 4.1
2018-Feb-01 23:00N 39°03' W 090°35'3 3.0
2018-Feb-01 22:00N 39°00' W 090°35'2 4.1
2018-Feb-01 21:29N 38°58' W 090°33'8 4.1
2018-Feb-01 19:30N 38°57' W 090°23'3 5.3
2018-Feb-01 19:00N 38°56' W 090°20'3 5.8
2018-Feb-01 18:30N 38°55' W 090°16'  

Dump ship's entire track history